Time;durP1;ratioP1;P1;durP2;ratioP2;P2;SDS_P1;SDS_P2;PMS_P1;PMS_P2;Temp;Humidity;BMP_temperature;BMP_pressure;BME280_temperature;BME280_humidity;BME280_pressure;Samples;Min_cycle;Max_cycle;Signal;HPM_P1;HPM_P2
2021/03/25 00:01:16;;;;;;;62.40;26.60;;;6.10;99.90;;;;;;4424674;32;20154;-68
2021/03/25 00:03:46;;;;;;;64.87;27.97;;;6.10;99.90;;;;;;4424872;32;20236;-67
2021/03/25 00:06:12;;;;;;;63.67;27.90;;;6.00;99.90;;;;;;4425919;32;20224;-68
2021/03/25 00:08:38;;;;;;;63.80;28.00;;;5.80;99.90;;;;;;4426061;32;20168;-67
2021/03/25 00:11:05;;;;;;;62.10;27.23;;;5.70;99.90;;;;;;4425429;32;20386;-68
2021/03/25 00:13:31;;;;;;;60.40;27.27;;;5.80;99.90;;;;;;4424148;32;20161;-68
2021/03/25 00:15:58;;;;;;;69.53;28.80;;;5.90;99.90;;;;;;4425069;32;20150;-68
2021/03/25 00:18:24;;;;;;;68.27;27.80;;;5.90;99.90;;;;;;4425530;32;20156;-69
2021/03/25 00:20:51;;;;;;;60.33;27.60;;;5.90;99.90;;;;;;4423703;32;20200;-71
2021/03/25 00:23:18;;;;;;;62.60;27.13;;;6.00;99.90;;;;;;4421452;32;20205;-71
2021/03/25 00:25:45;;;;;;;64.10;26.23;;;6.00;99.90;;;;;;4421043;32;20237;-72
2021/03/25 00:28:13;;;;;;;58.07;26.53;;;6.00;99.90;;;;;;4421726;32;20153;-72
2021/03/25 00:30:40;;;;;;;60.03;25.27;;;6.00;99.90;;;;;;4421865;32;20174;-72
2021/03/25 00:33:10;;;;;;;55.30;24.97;;;6.00;99.90;;;;;;4421822;32;20162;-72
2021/03/25 00:35:39;;;;;;;57.40;25.67;;;6.00;99.90;;;;;;4423443;32;20389;-72
2021/03/25 00:38:06;;;;;;;59.30;25.33;;;6.10;99.90;;;;;;4422308;32;20177;-71
2021/03/25 00:40:41;;;;;;;56.73;24.77;;;6.10;99.90;;;;;;4424133;32;20206;-70
2021/03/25 00:43:09;;;;;;;56.80;25.17;;;6.10;99.90;;;;;;4424304;32;20493;-70
2021/03/25 00:45:42;;;;;;;54.53;25.40;;;6.10;99.90;;;;;;4424373;32;20197;-71
2021/03/25 00:48:09;;;;;;;54.70;25.13;;;6.10;99.90;;;;;;4423752;32;20490;-70
2021/03/25 00:50:40;;;;;;;57.87;25.77;;;6.20;99.90;;;;;;4424251;32;20135;-70
2021/03/25 00:53:08;;;;;;;57.80;26.10;;;6.20;99.90;;;;;;4424225;32;20459;-70
2021/03/25 00:55:36;;;;;;;62.50;26.07;;;6.20;99.90;;;;;;4424471;32;20173;-70
2021/03/25 00:58:02;;;;;;;59.57;25.33;;;6.20;99.90;;;;;;4425636;32;20196;-70
2021/03/25 01:00:33;;;;;;;59.40;25.43;;;6.10;99.90;;;;;;4424135;32;20189;-70
2021/03/25 01:03:00;;;;;;;56.73;25.07;;;6.10;99.90;;;;;;4425217;32;20179;-71
2021/03/25 01:05:28;;;;;;;56.50;24.83;;;6.20;99.90;;;;;;4423603;32;20194;-71
2021/03/25 01:07:55;;;;;;;57.30;25.10;;;6.10;99.90;;;;;;4423702;32;20510;-70
2021/03/25 01:10:34;;;;;;;57.03;24.37;;;6.20;99.90;;;;;;4425649;32;20201;-72
2021/03/25 01:13:12;;;;;;;52.90;24.17;;;6.20;99.90;;;;;;4424075;32;20374;-71
2021/03/25 01:15:39;;;;;;;57.17;25.37;;;6.30;99.90;;;;;;4425921;32;20212;-71
2021/03/25 01:18:07;;;;;;;55.67;25.73;;;6.30;99.90;;;;;;4425857;32;20143;-70
2021/03/25 01:20:39;;;;;;;55.33;25.43;;;6.30;99.90;;;;;;4424192;32;20196;-70
2021/03/25 01:23:06;;;;;;;56.67;25.37;;;6.20;99.90;;;;;;4424041;32;20140;-70
2021/03/25 01:25:34;;;;;;;57.53;25.80;;;6.10;99.90;;;;;;4425763;32;20193;-70
2021/03/25 01:28:03;;;;;;;59.37;25.67;;;6.10;99.90;;;;;;4423969;32;20150;-71
2021/03/25 01:30:31;;;;;;;58.27;26.10;;;6.10;99.90;;;;;;4423834;32;20396;-71
2021/03/25 01:32:59;;;;;;;59.40;25.93;;;6.10;99.90;;;;;;4423899;32;20144;-71
2021/03/25 01:35:27;;;;;;;61.00;27.23;;;6.10;99.90;;;;;;4424022;32;20184;-71
2021/03/25 01:37:53;;;;;;;60.93;26.20;;;6.10;99.90;;;;;;4425274;32;20448;-71
2021/03/25 01:40:23;;;;;;;57.27;25.70;;;6.10;99.90;;;;;;4426788;32;20223;-70
2021/03/25 01:42:49;;;;;;;58.20;25.40;;;6.10;99.90;;;;;;4426016;32;20521;-72
2021/03/25 01:45:44;;;;;;;56.33;25.43;;;6.20;99.90;;;;;;4428305;32;20194;-71
2021/03/25 01:48:11;;;;;;;55.90;24.23;;;6.10;99.90;;;;;;4364500;32;20205;-71
2021/03/25 01:50:38;;;;;;;54.37;24.67;;;6.10;99.90;;;;;;4364505;32;20255;-71
2021/03/25 01:53:37;;;;;;;54.20;23.80;;;6.10;99.90;;;;;;4364145;32;20287;-70
2021/03/25 01:56:45;;;;;;;52.47;23.20;;;6.10;99.90;;;;;;4365674;32;20181;-71
2021/03/25 01:59:23;;;;;;;55.40;24.20;;;6.20;99.90;;;;;;4334654;33;20199;-71
2021/03/25 02:01:55;;;;;;;53.97;23.63;;;6.20;99.90;;;;;;4336264;33;20174;-72
2021/03/25 02:04:51;;;;;;;51.47;23.67;;;6.20;99.90;;;;;;4335042;33;20219;-71
2021/03/25 02:07:30;;;;;;;54.73;23.40;;;6.20;99.90;;;;;;4335947;33;20199;-71
2021/03/25 02:10:05;;;;;;;49.10;22.40;;;6.20;99.90;;;;;;4336097;33;20175;-70
2021/03/25 02:12:49;;;;;;;52.20;22.53;;;6.20;99.90;;;;;;4334518;33;20503;-71
2021/03/25 02:15:24;;;;;;;48.03;21.30;;;6.20;99.90;;;;;;4336082;33;20225;-71
2021/03/25 02:18:01;;;;;;;42.90;19.73;;;6.20;99.90;;;;;;4335573;33;20369;-71
2021/03/25 02:21:05;;;;;;;50.03;21.53;;;6.00;99.90;;;;;;4335957;33;20386;-71
2021/03/25 02:23:52;;;;;;;56.03;24.10;;;6.10;99.90;;;;;;4334763;33;20195;-71
2021/03/25 02:26:49;;;;;;;55.13;24.27;;;6.00;99.90;;;;;;4378108;32;20159;-71
2021/03/25 02:29:23;;;;;;;49.23;22.27;;;5.90;99.90;;;;;;4380244;32;20402;-71
2021/03/25 02:31:56;;;;;;;55.00;23.97;;;5.90;99.90;;;;;;4378372;32;20161;-71
2021/03/25 02:34:27;;;;;;;51.27;23.47;;;5.90;99.90;;;;;;4378426;32;20199;-71
2021/03/25 02:37:04;;;;;;;50.00;22.17;;;5.90;99.90;;;;;;4421298;32;20491;-71
2021/03/25 02:39:39;;;;;;;53.73;23.63;;;5.90;99.90;;;;;;4427518;32;20193;-71
2021/03/25 02:42:11;;;;;;;56.77;23.57;;;6.00;99.90;;;;;;4427274;32;20186;-73
2021/03/25 02:44:45;;;;;;;54.23;23.47;;;5.90;99.90;;;;;;4426044;32;20501;-72
2021/03/25 02:47:13;;;;;;;53.80;24.13;;;5.90;99.90;;;;;;4427855;32;20180;-72
2021/03/25 02:49:47;;;;;;;53.93;24.57;;;5.80;99.90;;;;;;4425267;32;20138;-73
2021/03/25 02:52:24;;;;;;;61.03;24.63;;;5.80;99.90;;;;;;4426193;32;20152;-71
2021/03/25 02:54:52;;;;;;;58.37;25.13;;;5.70;99.90;;;;;;4427520;32;20139;-72
2021/03/25 02:57:25;;;;;;;55.17;23.97;;;5.70;99.90;;;;;;4427501;32;20153;-72
2021/03/25 02:59:57;;;;;;;59.47;24.73;;;5.80;99.90;;;;;;4427418;32;20450;-72
2021/03/25 03:02:32;;;;;;;57.70;24.90;;;5.80;99.90;;;;;;4427368;32;20196;-71
2021/03/25 03:05:12;;;;;;;56.67;25.33;;;5.80;99.90;;;;;;4425706;32;20184;-71
2021/03/25 03:07:48;;;;;;;56.97;24.67;;;5.70;99.90;;;;;;4427458;32;20165;-71
2021/03/25 03:10:20;;;;;;;57.00;25.53;;;5.70;99.90;;;;;;4425758;32;20142;-71
2021/03/25 03:12:49;;;;;;;59.87;25.40;;;5.70;99.90;;;;;;4427333;32;20212;-71
2021/03/25 03:15:24;;;;;;;61.03;25.77;;;5.70;99.90;;;;;;4427050;32;20144;-71
2021/03/25 03:18:09;;;;;;;59.53;25.73;;;5.60;99.90;;;;;;4427552;32;20149;-71
2021/03/25 03:20:43;;;;;;;59.67;26.10;;;5.60;99.90;;;;;;4425009;32;20504;-71
2021/03/25 03:23:10;;;;;;;57.63;25.00;;;5.60;99.90;;;;;;4426567;32;20190;-72
2021/03/25 03:25:38;;;;;;;60.90;26.73;;;5.60;99.90;;;;;;4425782;32;20155;-71
2021/03/25 03:28:24;;;;;;;59.43;25.53;;;5.60;99.90;;;;;;4425388;32;20148;-71
2021/03/25 03:30:56;;;;;;;61.63;25.80;;;5.70;99.90;;;;;;4425729;32;20431;-71
2021/03/25 03:33:32;;;;;;;58.57;26.03;;;5.60;99.90;;;;;;4426794;32;20225;-71
2021/03/25 03:36:07;;;;;;;55.00;24.20;;;5.70;99.90;;;;;;4426945;32;20426;-72
2021/03/25 03:39:03;;;;;;;58.87;25.80;;;5.80;99.90;;;;;;4426712;32;20406;-71
2021/03/25 03:41:45;;;;;;;57.73;24.60;;;5.80;99.90;;;;;;4363019;32;20174;-72
2021/03/25 03:44:15;;;;;;;56.07;25.23;;;5.70;99.90;;;;;;4362490;32;20171;-72
2021/03/25 03:46:44;;;;;;;59.73;24.93;;;5.70;99.90;;;;;;4362838;32;20150;-71
2021/03/25 03:49:19;;;;;;;61.43;25.07;;;5.70;99.90;;;;;;4362013;32;20205;-72
2021/03/25 03:52:02;;;;;;;58.40;25.20;;;5.70;99.90;;;;;;4362512;32;20148;-71
2021/03/25 03:54:29;;;;;;;58.43;25.73;;;5.60;99.90;;;;;;4364065;32;20203;-71
2021/03/25 03:57:20;;;;;;;61.20;25.60;;;5.60;99.90;;;;;;4362427;32;20384;-71
2021/03/25 04:00:09;;;;;;;60.47;26.67;;;5.60;99.90;;;;;;4362672;32;20159;-71
2021/03/25 04:02:41;;;;;;;53.47;24.03;;;5.50;99.90;;;;;;4363401;32;20170;-71
2021/03/25 04:05:30;;;;;;;55.50;24.27;;;5.50;99.90;;;;;;4362408;32;20164;-72
2021/03/25 04:08:08;;;;;;;53.27;23.67;;;5.60;99.90;;;;;;4362270;32;20142;-71
2021/03/25 04:10:40;;;;;;;58.63;25.37;;;5.60;99.90;;;;;;4363858;32;20150;-71
2021/03/25 04:13:26;;;;;;;55.07;24.37;;;5.60;99.90;;;;;;4364227;32;20203;-71
2021/03/25 04:15:54;;;;;;;56.00;25.37;;;5.60;99.90;;;;;;4362148;32;20209;-71
2021/03/25 04:18:24;;;;;;;57.53;25.23;;;5.60;99.90;;;;;;4388711;32;20198;-72
2021/03/25 04:20:57;;;;;;;58.73;25.43;;;5.50;99.90;;;;;;4426140;32;20136;-71
2021/03/25 04:23:25;;;;;;;56.20;24.93;;;5.50;99.90;;;;;;4426400;32;20148;-71
2021/03/25 04:26:01;;;;;;;58.43;25.00;;;5.60;99.90;;;;;;4424545;32;20199;-71
2021/03/25 04:28:51;;;;;;;55.43;25.00;;;5.70;99.90;;;;;;4424621;32;20143;-71
2021/03/25 04:31:18;;;;;;;57.80;24.47;;;5.80;99.90;;;;;;4424606;32;20513;-71
2021/03/25 04:33:45;;;;;;;56.97;25.20;;;5.80;99.90;;;;;;4424878;32;20223;-71
2021/03/25 04:36:16;;;;;;;61.80;24.97;;;5.80;99.90;;;;;;4424397;32;20235;-71
2021/03/25 04:38:43;;;;;;;57.27;24.33;;;5.80;99.90;;;;;;4426490;32;20486;-71
2021/03/25 04:41:12;;;;;;;56.00;24.83;;;5.80;99.90;;;;;;4425851;32;20189;-70
2021/03/25 04:43:42;;;;;;;61.43;26.30;;;5.90;99.90;;;;;;4424647;32;20169;-70
2021/03/25 04:46:27;;;;;;;57.33;25.10;;;5.90;99.90;;;;;;4425910;32;20175;-71
2021/03/25 04:48:57;;;;;;;55.83;24.27;;;5.90;99.90;;;;;;4425846;32;20154;-70
2021/03/25 04:51:25;;;;;;;59.70;24.73;;;5.80;99.90;;;;;;4425812;32;20182;-71
2021/03/25 04:54:09;;;;;;;58.17;25.53;;;5.80;99.90;;;;;;4425728;32;20202;-71
2021/03/25 04:56:38;;;;;;;53.43;24.23;;;5.80;99.90;;;;;;4424261;32;20144;-71
2021/03/25 04:59:06;;;;;;;57.77;24.80;;;5.80;99.90;;;;;;4423191;32;20159;-72
2021/03/25 05:01:34;;;;;;;55.37;24.13;;;5.80;99.90;;;;;;4424267;32;20162;-72
2021/03/25 05:04:05;;;;;;;57.00;25.73;;;5.80;99.90;;;;;;4425673;32;20163;-70
2021/03/25 05:06:44;;;;;;;54.70;24.23;;;5.80;99.90;;;;;;4424811;32;20222;-71
2021/03/25 05:09:14;;;;;;;58.03;25.33;;;5.80;99.90;;;;;;4424487;32;20152;-70
2021/03/25 05:11:41;;;;;;;56.80;24.30;;;5.90;99.90;;;;;;4425465;32;20494;-70
2021/03/25 05:14:23;;;;;;;60.47;25.60;;;5.90;99.90;;;;;;4424507;32;20231;-70
2021/03/25 05:17:02;;;;;;;59.40;25.57;;;5.90;99.90;;;;;;4427072;32;20159;-70
2021/03/25 05:19:48;;;;;;;57.50;25.37;;;5.80;99.90;;;;;;4428764;32;20203;-72
2021/03/25 05:22:47;;;;;;;58.93;26.53;;;5.80;99.90;;;;;;4427602;32;20148;-71
2021/03/25 05:25:32;;;;;;;63.87;25.27;;;5.80;99.90;;;;;;4427836;32;20145;-72
2021/03/25 05:28:28;;;;;;;51.47;24.67;;;5.70;99.90;;;;;;4426850;32;20194;-72
2021/03/25 05:30:55;;;;;;;59.60;25.10;;;5.70;99.90;;;;;;4427024;32;20400;-72
2021/03/25 05:33:26;;;;;;;59.07;25.73;;;5.80;99.90;;;;;;4428426;32;20192;-72
2021/03/25 05:36:02;;;;;;;58.43;25.77;;;5.80;99.90;;;;;;4428073;32;20170;-71
2021/03/25 05:38:29;;;;;;;59.73;25.60;;;5.80;99.90;;;;;;4428377;32;20183;-71
2021/03/25 05:41:21;;;;;;;64.37;27.40;;;5.70;99.90;;;;;;4426879;32;20139;-71
2021/03/25 05:44:08;;;;;;;59.97;26.63;;;5.80;99.90;;;;;;4428309;32;20146;-71
2021/03/25 05:46:48;;;;;;;63.43;26.53;;;5.80;99.90;;;;;;4428666;32;20169;-71
2021/03/25 05:49:26;;;;;;;62.60;26.50;;;5.90;99.90;;;;;;4426783;32;20137;-72
2021/03/25 05:52:19;;;;;;;61.63;27.03;;;5.90;99.90;;;;;;4428258;32;20451;-71
2021/03/25 05:55:05;;;;;;;66.10;27.43;;;5.90;99.90;;;;;;4428220;32;20428;-71
2021/03/25 05:58:19;;;;;;;59.17;25.23;;;5.90;99.90;;;;;;4428217;32;20458;-71
2021/03/25 06:01:26;;;;;;;58.13;25.67;;;6.00;99.90;;;;;;4349477;33;20154;-70
2021/03/25 06:04:09;;;;;;;61.83;26.57;;;5.90;99.90;;;;;;4290809;33;20197;-71
2021/03/25 06:06:48;;;;;;;58.60;25.43;;;5.90;99.90;;;;;;4291849;33;20480;-71
2021/03/25 06:09:48;;;;;;;59.17;25.73;;;6.10;99.90;;;;;;4292196;33;20555;-71
2021/03/25 06:12:20;;;;;;;59.20;26.40;;;6.00;99.90;;;;;;4289897;33;20173;-71
2021/03/25 06:15:11;;;;;;;56.70;25.63;;;6.00;99.90;;;;;;4292115;33;20174;-71
2021/03/25 06:17:51;;;;;;;62.00;25.83;;;6.00;99.90;;;;;;4290847;33;20177;-71
2021/03/25 06:20:29;;;;;;;61.20;27.00;;;5.90;99.90;;;;;;4292306;33;20151;-71
2021/03/25 06:23:17;;;;;;;61.10;26.30;;;5.90;99.90;;;;;;4290309;33;20168;-71
2021/03/25 06:26:11;;;;;;;65.97;27.23;;;6.00;99.90;;;;;;4289847;33;20151;-71
2021/03/25 06:28:52;;;;;;;60.43;27.00;;;6.10;99.90;;;;;;4291065;33;20170;-70
2021/03/25 06:31:33;;;;;;;71.93;28.73;;;6.00;99.90;;;;;;4290155;33;20160;-71
2021/03/25 06:34:06;;;;;;;66.57;27.37;;;6.00;99.90;;;;;;4304901;33;20173;-71
2021/03/25 06:36:55;;;;;;;64.27;28.47;;;6.00;99.90;;;;;;4376097;32;20258;-72
2021/03/25 06:39:29;;;;;;;67.33;28.73;;;6.00;99.90;;;;;;4427219;32;20215;-70
2021/03/25 06:42:05;;;;;;;66.30;28.57;;;6.00;99.90;;;;;;4413586;32;20146;-72
2021/03/25 06:44:43;;;;;;;69.23;29.13;;;6.00;99.90;;;;;;4427424;32;20144;-70
2021/03/25 06:47:50;;;;;;;65.27;29.73;;;6.00;99.90;;;;;;4427434;32;20181;-70
2021/03/25 06:50:25;;;;;;;75.83;30.73;;;6.10;99.90;;;;;;4337087;33;20201;-70
2021/03/25 06:52:59;;;;;;;66.63;29.50;;;6.00;99.90;;;;;;4348232;33;20196;-71
2021/03/25 06:55:27;;;;;;;67.20;29.07;;;6.10;99.90;;;;;;4355791;33;20157;-70
2021/03/25 06:57:58;;;;;;;70.33;31.00;;;6.20;99.90;;;;;;4352538;32;20185;-70
2021/03/25 07:00:27;;;;;;;69.67;31.03;;;6.10;99.90;;;;;;4357421;33;20242;-70
2021/03/25 07:02:56;;;;;;;74.60;30.13;;;6.10;99.90;;;;;;4360126;32;20139;-70
2021/03/25 07:05:27;;;;;;;71.70;29.70;;;6.20;99.90;;;;;;4354256;32;20193;-70
2021/03/25 07:08:11;;;;;;;66.07;29.37;;;6.30;99.90;;;;;;4356003;32;20459;-70
2021/03/25 07:10:37;;;;;;;62.80;28.33;;;6.30;99.90;;;;;;4358582;32;20642;-70
2021/03/25 07:13:05;;;;;;;64.33;28.90;;;6.40;99.90;;;;;;4349512;32;20528;-70
2021/03/25 07:15:44;;;;;;;63.67;29.57;;;6.40;99.90;;;;;;4339609;33;20175;-67
2021/03/25 07:18:26;;;;;;;66.90;28.63;;;6.40;99.90;;;;;;4349051;33;20461;-67
2021/03/25 07:21:21;;;;;;;68.60;29.90;;;6.50;99.90;;;;;;4348356;33;20246;-66
2021/03/25 07:23:49;;;;;;;69.50;28.40;;;6.60;99.90;;;;;;4351850;33;20185;-76
2021/03/25 07:26:24;;;;;;;62.73;28.50;;;6.70;99.90;;;;;;4376005;32;20178;-60
2021/03/25 07:28:58;;;;;;;70.93;28.90;;;6.60;99.90;;;;;;4424722;32;20216;-68
2021/03/25 07:31:38;;;;;;;65.67;28.07;;;6.50;99.90;;;;;;4422862;32;20180;-68
2021/03/25 07:34:06;;;;;;;62.40;27.67;;;6.60;99.90;;;;;;4424941;32;20181;-68
2021/03/25 07:36:47;;;;;;;62.10;26.50;;;6.80;99.90;;;;;;4424284;32;20512;-69
2021/03/25 07:39:20;;;;;;;57.40;26.93;;;7.00;99.90;;;;;;4426301;32;20151;-69
2021/03/25 07:41:47;;;;;;;58.97;26.13;;;7.00;99.90;;;;;;4424457;32;20155;-69
2021/03/25 07:44:39;;;;;;;58.67;26.40;;;6.90;99.90;;;;;;4423986;32;20406;-68
2021/03/25 07:47:30;;;;;;;61.30;26.73;;;7.10;99.90;;;;;;4424345;32;20147;-69
2021/03/25 07:50:27;;;;;;;57.50;27.23;;;7.20;99.90;;;;;;4424613;32;20141;-68
2021/03/25 07:52:55;;;;;;;59.37;26.47;;;7.20;99.90;;;;;;4411750;32;20177;-68
2021/03/25 07:55:23;;;;;;;58.87;26.50;;;7.20;99.90;;;;;;4424735;32;20139;-69
2021/03/25 07:57:52;;;;;;;58.17;26.97;;;7.30;99.90;;;;;;4425375;32;20184;-69
2021/03/25 08:00:30;;;;;;;63.97;27.30;;;7.30;99.90;;;;;;4424120;32;20178;-70
2021/03/25 08:03:18;;;;;;;55.83;25.83;;;7.50;99.90;;;;;;4425811;32;20231;-69
2021/03/25 08:05:47;;;;;;;61.63;26.90;;;7.60;99.90;;;;;;4425147;32;20147;-67
2021/03/25 08:08:33;;;;;;;49.17;23.73;;;7.60;98.80;;;;;;4424447;32;20230;-68
2021/03/25 08:11:11;;;;;;;54.70;24.23;;;7.50;94.40;;;;;;4423803;32;20150;-68
2021/03/25 08:14:08;;;;;;;52.03;23.93;;;7.50;94.60;;;;;;4423738;32;20208;-70
2021/03/25 08:16:47;;;;;;;53.23;23.53;;;7.60;94.30;;;;;;4417465;32;20174;-67
2021/03/25 08:19:41;;;;;;;52.37;25.20;;;7.70;93.70;;;;;;4424107;32;20401;-66
2021/03/25 08:22:47;;;;;;;56.00;24.83;;;7.60;93.40;;;;;;4424985;32;20150;-66
2021/03/25 08:25:19;;;;;;;52.40;25.13;;;7.50;94.50;;;;;;4423678;32;20184;-67
2021/03/25 08:28:02;;;;;;;55.27;25.00;;;7.70;94.80;;;;;;4424398;32;20192;-67
2021/03/25 08:31:07;;;;;;;57.30;26.77;;;7.90;95.10;;;;;;4425172;32;20162;-68
2021/03/25 08:33:34;;;;;;;56.40;24.83;;;7.90;94.90;;;;;;4425115;32;20155;-68
2021/03/25 08:36:33;;;;;;;61.97;25.97;;;8.10;94.40;;;;;;4423551;32;20203;-67
2021/03/25 08:39:20;;;;;;;58.50;26.70;;;8.00;94.00;;;;;;4424099;32;20203;-68
2021/03/25 08:41:53;;;;;;;58.90;26.70;;;8.10;94.30;;;;;;4425897;32;20150;-67
2021/03/25 08:44:38;;;;;;;57.70;26.07;;;8.20;94.00;;;;;;4417816;32;20161;-68
2021/03/25 08:47:33;;;;;;;59.20;26.07;;;8.10;93.80;;;;;;4424790;32;20227;-67
2021/03/25 08:50:33;;;;;;;56.73;25.37;;;8.10;93.70;;;;;;4425247;32;20177;-67
2021/03/25 08:53:24;;;;;;;59.93;25.33;;;8.10;93.60;;;;;;4416001;32;20502;-68
2021/03/25 08:55:54;;;;;;;56.67;25.07;;;8.30;92.80;;;;;;4423584;32;20208;-68
2021/03/25 08:58:25;;;;;;;52.37;23.87;;;8.50;91.40;;;;;;4425388;32;20182;-68
2021/03/25 09:00:59;;;;;;;53.73;25.03;;;8.60;90.70;;;;;;4423968;32;20157;-68
2021/03/25 09:03:33;;;;;;;49.53;23.27;;;8.40;90.80;;;;;;4423912;32;20181;-67
2021/03/25 09:06:13;;;;;;;49.87;23.93;;;8.70;90.50;;;;;;4423566;32;20159;-67
2021/03/25 09:08:41;;;;;;;56.83;23.53;;;8.70;90.60;;;;;;4423747;32;20572;-69
2021/03/25 09:11:18;;;;;;;56.47;24.33;;;8.90;90.70;;;;;;4423401;32;20150;-67
2021/03/25 09:13:53;;;;;;;41.33;21.60;;;9.10;88.70;;;;;;4425325;32;20147;-68
2021/03/25 09:16:21;;;;;;;45.17;20.97;;;9.30;85.50;;;;;;4423919;32;20162;-68
2021/03/25 09:18:49;;;;;;;44.53;22.20;;;9.50;83.80;;;;;;4424928;32;20151;-68
2021/03/25 09:21:23;;;;;;;46.17;21.90;;;9.70;83.00;;;;;;4425172;32;20154;-69
2021/03/25 09:24:09;;;;;;;46.30;22.07;;;9.80;81.40;;;;;;4423730;32;20215;-68
2021/03/25 09:26:51;;;;;;;45.63;21.77;;;10.10;80.90;;;;;;4422673;32;20212;-69
2021/03/25 09:29:40;;;;;;;46.03;22.33;;;10.40;79.20;;;;;;4423254;32;20169;-69
2021/03/25 09:32:07;;;;;;;49.60;23.23;;;10.30;77.30;;;;;;4361307;33;20161;-69
2021/03/25 09:34:43;;;;;;;45.13;22.57;;;10.00;76.80;;;;;;4352446;33;20298;-68
2021/03/25 09:37:23;;;;;;;48.40;22.60;;;10.10;77.90;;;;;;4357211;33;20156;-68
2021/03/25 09:40:07;;;;;;;47.10;22.90;;;10.00;78.40;;;;;;4346168;33;20144;-68
2021/03/25 09:42:33;;;;;;;45.17;22.23;;;10.10;76.60;;;;;;4346487;33;20168;-70
2021/03/25 09:45:36;;;;;;;46.97;23.10;;;10.10;76.30;;;;;;4346834;33;20215;-69
2021/03/25 09:48:04;;;;;;;50.20;24.17;;;10.30;77.10;;;;;;4348234;33;20203;-69
2021/03/25 09:50:33;;;;;;;48.07;23.87;;;10.80;75.70;;;;;;4348067;33;20183;-68
2021/03/25 09:53:15;;;;;;;47.63;23.83;;;10.80;74.00;;;;;;4346480;33;20148;-68
2021/03/25 09:55:59;;;;;;;47.93;24.57;;;10.80;72.90;;;;;;4346395;33;20262;-68
2021/03/25 09:58:47;;;;;;;47.70;23.83;;;10.70;72.80;;;;;;4347699;33;20446;-68
2021/03/25 10:02:05;;;;;;;49.67;24.30;;;11.10;71.70;;;;;;4349007;33;20171;-68
2021/03/25 10:04:37;;;;;;;51.50;23.57;;;11.10;70.40;;;;;;4290598;33;20158;-68
2021/03/25 10:07:26;;;;;;;46.17;23.40;;;11.10;70.70;;;;;;4292275;33;20568;-68
2021/03/25 10:10:02;;;;;;;46.73;23.10;;;11.00;70.60;;;;;;4334838;33;20192;-69
2021/03/25 10:12:49;;;;;;;44.13;23.00;;;10.90;71.20;;;;;;4350180;32;20172;-71
2021/03/25 10:15:27;;;;;;;48.60;23.03;;;11.20;70.50;;;;;;4352595;32;20564;-68
2021/03/25 10:18:14;;;;;;;44.70;22.80;;;11.20;69.40;;;;;;4350559;33;20229;-74
2021/03/25 10:20:53;;;;;;;45.97;22.33;;;11.50;68.20;;;;;;4350704;32;20195;-73
2021/03/25 10:23:38;;;;;;;45.70;22.90;;;11.60;67.80;;;;;;4350667;32;20216;-70
2021/03/25 10:26:05;;;;;;;46.37;23.03;;;11.50;69.50;;;;;;4349842;33;20152;-73
2021/03/25 10:28:46;;;;;;;48.30;22.83;;;11.90;69.10;;;;;;4353467;33;20171;-72
2021/03/25 10:31:23;;;;;;;50.25;26.23;;;12.10;67.40;;;;;;4353254;32;20044;-73
2021/03/25 10:33:54;;;;;;;52.87;24.60;;;12.50;65.80;;;;;;4360026;33;20191;-72
2021/03/25 10:37:03;;;;;;;45.60;23.63;;;12.20;64.70;;;;;;4354378;32;20394;-72
2021/03/25 10:39:37;;;;;;;46.70;22.80;;;12.00;65.40;;;;;;4348549;33;20168;-74
2021/03/25 10:42:36;;;;;;;43.37;22.40;;;12.10;65.60;;;;;;4417652;32;20173;-75
2021/03/25 10:45:19;;;;;;;45.87;23.83;;;12.10;65.00;;;;;;4427105;32;20182;-76
2021/03/25 10:47:57;;;;;;;46.90;22.93;;;11.80;65.80;;;;;;4424514;32;20438;-74
2021/03/25 10:50:55;;;;;;;43.97;22.50;;;11.90;66.10;;;;;;4425744;32;20207;-75
2021/03/25 10:53:28;;;;;;;45.33;23.83;;;12.20;65.30;;;;;;4427139;32;20200;-75
2021/03/25 10:56:04;;;;;;;45.63;23.70;;;11.80;65.70;;;;;;4427043;32;20169;-75
2021/03/25 10:58:38;;;;;;;44.83;23.63;;;12.00;67.20;;;;;;4427116;32;20209;-75
2021/03/25 11:01:13;;;;;;;47.70;23.00;;;12.50;63.90;;;;;;4425764;32;20516;-76
2021/03/25 11:03:40;;;;;;;44.90;23.90;;;12.40;63.60;;;;;;4412034;32;20199;-76
2021/03/25 11:06:16;;;;;;;45.67;23.77;;;12.50;64.50;;;;;;4425283;32;20158;-76
2021/03/25 11:08:43;;;;;;;45.07;23.07;;;12.90;64.00;;;;;;4426678;32;20178;-75
2021/03/25 11:11:17;;;;;;;44.77;23.27;;;13.30;61.80;;;;;;4424647;32;20139;-76
2021/03/25 11:14:01;;;;;;;46.90;24.57;;;13.50;62.80;;;;;;4425251;32;20168;-74
2021/03/25 11:16:28;;;;;;;46.00;24.27;;;13.90;60.00;;;;;;4411748;32;20150;-76
2021/03/25 11:19:07;;;;;;;42.87;22.93;;;13.70;59.50;;;;;;4425322;32;20141;-76
2021/03/25 11:21:38;;;;;;;44.23;23.37;;;13.90;59.60;;;;;;4425704;32;20446;-73
2021/03/25 11:24:16;;;;;;;44.30;23.67;;;14.30;59.80;;;;;;4425275;32;20162;-72
2021/03/25 11:26:44;;;;;;;50.40;25.07;;;14.80;58.40;;;;;;4425084;32;20183;-74
2021/03/25 11:29:15;;;;;;;43.60;24.17;;;14.80;56.90;;;;;;4426365;32;20143;-73
2021/03/25 11:31:43;;;;;;;44.17;23.87;;;14.60;57.20;;;;;;4424633;32;20509;-72
2021/03/25 11:34:30;;;;;;;46.13;24.20;;;14.80;56.70;;;;;;4423458;32;20497;-72
2021/03/25 11:36:57;;;;;;;52.10;25.97;;;15.80;55.60;;;;;;4423742;32;20166;-71
2021/03/25 11:39:31;;;;;;;47.57;24.77;;;15.70;53.60;;;;;;4425022;32;20407;-73
2021/03/25 11:42:00;;;;;;;46.40;25.13;;;15.50;54.60;;;;;;4411561;32;20155;-72
2021/03/25 11:44:37;;;;;;;47.63;25.13;;;15.40;55.10;;;;;;4424426;32;20147;-73
2021/03/25 11:47:22;;;;;;;46.53;24.77;;;16.20;54.00;;;;;;4412569;32;20176;-73
2021/03/25 11:49:49;;;;;;;44.87;24.40;;;16.50;51.20;;;;;;4424748;32;20238;-70
2021/03/25 11:52:19;;;;;;;44.47;23.83;;;16.50;51.50;;;;;;4424496;32;20162;-70
2021/03/25 11:54:46;;;;;;;43.20;23.90;;;16.70;52.40;;;;;;4424135;32;20189;-70
2021/03/25 11:57:33;;;;;;;44.73;24.13;;;16.80;52.10;;;;;;4425610;32;20228;-70
2021/03/25 12:00:10;;;;;;;45.10;24.30;;;17.30;51.00;;;;;;4425659;32;20503;-69
2021/03/25 12:02:38;;;;;;;44.90;24.83;;;17.50;50.40;;;;;;4425900;32;20138;-69
2021/03/25 12:05:45;;;;;;;46.07;24.77;;;17.80;49.30;;;;;;4409782;32;20242;-70
2021/03/25 12:08:17;;;;;;;48.23;25.43;;;17.10;49.80;;;;;;4362839;32;20295;-70
2021/03/25 12:10:44;;;;;;;45.10;25.50;;;16.50;50.60;;;;;;4361826;32;20267;-70
2021/03/25 12:13:12;;;;;;;46.40;25.63;;;15.80;52.00;;;;;;4362780;32;20495;-70
2021/03/25 12:15:39;;;;;;;42.97;23.97;;;15.40;54.20;;;;;;4362459;32;20152;-70
2021/03/25 12:18:24;;;;;;;43.47;24.30;;;16.00;53.50;;;;;;4363039;32;20179;-70
2021/03/25 12:20:51;;;;;;;47.03;26.00;;;17.10;51.80;;;;;;4363325;32;20140;-71
2021/03/25 12:23:28;;;;;;;47.80;25.83;;;17.90;48.70;;;;;;4360815;32;20203;-68
2021/03/25 12:25:56;;;;;;;42.80;24.27;;;18.20;48.80;;;;;;4361653;32;20148;-68
2021/03/25 12:28:23;;;;;;;46.83;25.57;;;19.40;47.20;;;;;;4361536;32;20186;-67
2021/03/25 12:30:51;;;;;;;43.90;25.27;;;20.10;44.20;;;;;;4361583;32;20535;-69
2021/03/25 12:33:23;;;;;;;46.93;27.07;;;19.70;44.00;;;;;;4362058;32;20226;-68
2021/03/25 12:35:51;;;;;;;45.43;26.27;;;19.10;45.20;;;;;;4363368;32;20141;-69
2021/03/25 12:38:18;;;;;;;43.77;25.50;;;19.30;46.20;;;;;;4377315;32;20158;-69
2021/03/25 12:40:45;;;;;;;42.57;25.73;;;19.40;45.60;;;;;;4425473;32;20182;-69
2021/03/25 12:43:20;;;;;;;45.27;26.77;;;19.20;44.70;;;;;;4425620;32;20173;-68
2021/03/25 12:45:50;;;;;;;47.60;26.20;;;18.20;46.80;;;;;;4424413;32;20161;-69
2021/03/25 12:48:19;;;;;;;43.43;24.73;;;18.50;46.30;;;;;;4425156;32;20146;-68
2021/03/25 12:50:48;;;;;;;44.27;25.90;;;19.00;46.50;;;;;;4425236;32;20143;-70
2021/03/25 12:53:16;;;;;;;43.20;25.20;;;19.50;44.80;;;;;;4424461;32;20492;-70
2021/03/25 12:55:42;;;;;;;46.37;26.10;;;20.60;42.50;;;;;;4425151;32;20162;-70
2021/03/25 12:58:19;;;;;;;43.80;25.93;;;21.40;41.40;;;;;;4423538;32;20454;-69
2021/03/25 13:00:47;;;;;;;50.23;26.20;;;21.80;40.80;;;;;;4423817;32;20161;-70
2021/03/25 13:03:26;;;;;;;45.83;26.07;;;21.70;40.50;;;;;;4425991;32;20192;-69
2021/03/25 13:05:53;;;;;;;42.83;25.40;;;20.80;40.00;;;;;;4423921;32;20233;-69
2021/03/25 13:08:19;;;;;;;41.87;24.80;;;20.50;42.70;;;;;;4425252;32;20197;-69
2021/03/25 13:10:54;;;;;;;43.27;26.00;;;21.20;41.70;;;;;;4412916;32;20164;-70
2021/03/25 13:13:21;;;;;;;45.73;26.27;;;21.40;39.70;;;;;;4423376;32;20155;-69
2021/03/25 13:15:47;;;;;;;43.63;25.50;;;20.70;40.50;;;;;;4425421;32;20215;-68
2021/03/25 13:18:14;;;;;;;44.03;25.73;;;20.40;41.40;;;;;;4424110;32;20142;-69
2021/03/25 13:20:41;;;;;;;44.73;25.63;;;20.20;41.70;;;;;;4423890;32;20170;-69